Time;durP1;ratioP1;P1;durP2;ratioP2;P2;SDS_P1;SDS_P2;PMS_P1;PMS_P2;Temp;Humidity;BMP_temperature;BMP_pressure;BME280_temperature;BME280_humidity;BME280_pressure;Samples;Min_cycle;Max_cycle;Signal;HPM_P1;HPM_P2
2023/04/10 00:00:17;;;;;;;;;;;;;;;;;;5057578;28;19953;-68
2023/04/10 00:02:43;;;;;;;;;;;;;;;;;;5057605;28;19966;-67
2023/04/10 00:05:09;;;;;;;;;;;;;;;;;;5057827;28;19960;-67
2023/04/10 00:07:35;;;;;;;;;;;;;;;;;;5057469;28;20505;-66
2023/04/10 00:10:01;;;;;;;;;;;;;;;;;;5057395;28;20052;-67
2023/04/10 00:12:27;;;;;;;;;;;;;;;;;;5057624;28;20010;-65
2023/04/10 00:14:53;;;;;;;;;;;;;;;;;;5057299;28;20008;-67
2023/04/10 00:17:19;;;;;;;;;;;;;;;;;;5057223;28;19974;-66
2023/04/10 00:19:44;;;;;;;;;;;;;;;;;;5057794;28;20371;-66
2023/04/10 00:22:10;;;;;;;;;;;;;;;;;;5056850;28;19991;-68
2023/04/10 00:24:36;;;;;;;;;;;;;;;;;;5057101;28;19956;-68
2023/04/10 00:27:02;;;;;;;;;;;;;;;;;;5057686;28;19987;-67
2023/04/10 00:29:28;;;;;;;;;;;;;;;;;;5056972;28;19972;-66
2023/04/10 00:31:54;;;;;;;;;;;;;;;;;;5057298;28;19989;-67
2023/04/10 00:34:20;;;;;;;;;;;;;;;;;;5056961;28;19955;-68
2023/04/10 00:36:46;;;;;;;;;;;;;;;;;;5056927;28;20068;-67
2023/04/10 00:39:12;;;;;;;;;;;;;;;;;;5056928;28;19956;-68
2023/04/10 00:41:38;;;;;;;;;;;;;;;;;;5056848;28;19962;-67
2023/04/10 00:44:04;;;;;;;;;;;;;;;;;;5057079;28;19959;-67
2023/04/10 00:46:29;;;;;;;;;;;;;;;;;;5056739;28;20418;-65
2023/04/10 00:48:56;;;;;;;;;;;;;;;;;;5056734;28;19963;-67
2023/04/10 00:51:22;;;;;;;;;;;;;;;;;;5056721;28;19956;-67
2023/04/10 00:53:49;;;;;;;;;;;;;;;;;;5056892;28;19962;-65
2023/04/10 00:56:15;;;;;;;;;;;;;;;;;;5056472;28;20346;-68
2023/04/10 00:58:41;;;;;;;;;;;;;;;;;;5056525;28;19956;-67
2023/04/10 01:01:07;;;;;;;;;;;;;;;;;;5056495;28;19962;-65
2023/04/10 01:03:33;;;;;;;;;;;;;;;;;;5056109;28;20438;-66
2023/04/10 01:05:59;;;;;;;;;;;;;;;;;;5056420;28;20081;-67
2023/04/10 01:08:25;;;;;;;;;;;;;;;;;;5056345;28;19955;-66
2023/04/10 01:10:51;;;;;;;;;;;;;;;;;;5056333;28;20399;-68
2023/04/10 01:13:17;;;;;;;;;;;;;;;;;;5056256;28;19963;-66
2023/04/10 01:15:43;;;;;;;;;;;;;;;;;;5056444;28;19954;-67
2023/04/10 01:18:09;;;;;;;;;;;;;;;;;;5056418;28;19961;-65
2023/04/10 01:20:35;;;;;;;;;;;;;;;;;;5056446;28;19955;-64
2023/04/10 01:23:01;;;;;;;;;;;;;;;;;;5056403;28;19951;-67
2023/04/10 01:25:26;;;;;;;;;;;;;;;;;;5056570;28;20484;-65
2023/04/10 01:27:52;;;;;;;;;;;;;;;;;;5055968;28;19963;-66
2023/04/10 01:30:18;;;;;;;;;;;;;;;;;;5055877;28;20477;-67
2023/04/10 01:32:44;;;;;;;;;;;;;;;;;;5056211;28;19959;-68
2023/04/10 01:35:10;;;;;;;;;;;;;;;;;;5056162;28;19963;-66
2023/04/10 01:37:36;;;;;;;;;;;;;;;;;;5055743;28;19976;-67
2023/04/10 01:40:02;;;;;;;;;;;;;;;;;;5056057;28;19954;-65
2023/04/10 01:42:28;;;;;;;;;;;;;;;;;;5055728;28;20450;-66
2023/04/10 01:44:54;;;;;;;;;;;;;;;;;;5055971;28;19958;-67
2023/04/10 01:47:20;;;;;;;;;;;;;;;;;;5055567;28;20470;-66
2023/04/10 01:49:46;;;;;;;;;;;;;;;;;;5055547;28;20002;-65
2023/04/10 01:52:12;;;;;;;;;;;;;;;;;;5055816;28;19956;-66
2023/04/10 01:54:39;;;;;;;;;;;;;;;;;;5055464;28;20415;-67
2023/04/10 01:57:05;;;;;;;;;;;;;;;;;;5055667;28;19978;-68
2023/04/10 01:59:31;;;;;;;;;;;;;;;;;;5055395;28;20438;-66
2023/04/10 02:01:57;;;;;;;;;;;;;;;;;;5055882;28;19960;-66
2023/04/10 02:04:25;;;;;;;;;;;;;;;;;;5055596;28;19977;-66
2023/04/10 02:06:51;;;;;;;;;;;;;;;;;;5055558;28;20068;-67
2023/04/10 02:09:16;;;;;;;;;;;;;;;;;;5055202;28;19954;-64
2023/04/10 02:11:42;;;;;;;;;;;;;;;;;;5055425;28;19997;-67
2023/04/10 02:14:08;;;;;;;;;;;;;;;;;;5055671;28;19955;-66
2023/04/10 02:16:34;;;;;;;;;;;;;;;;;;5055026;28;19978;-67
2023/04/10 02:19:00;;;;;;;;;;;;;;;;;;5055552;28;20334;-65
2023/04/10 02:21:26;;;;;;;;;;;;;;;;;;5054968;28;19992;-66
2023/04/10 02:23:52;;;;;;;;;;;;;;;;;;5054908;28;20392;-65
2023/04/10 02:26:18;;;;;;;;;;;;;;;;;;5054918;28;19956;-66
2023/04/10 02:28:44;;;;;;;;;;;;;;;;;;5055044;28;20420;-65
2023/04/10 02:31:10;;;;;;;;;;;;;;;;;;5055092;28;19960;-67
2023/04/10 02:33:36;;;;;;;;;;;;;;;;;;5054766;28;20003;-67
2023/04/10 02:36:01;;;;;;;;;;;;;;;;;;5054590;28;19980;-65
2023/04/10 02:38:27;;;;;;;;;;;;;;;;;;5054915;28;19956;-67
2023/04/10 02:40:53;;;;;;;;;;;;;;;;;;5054636;28;20463;-67
2023/04/10 02:43:19;;;;;;;;;;;;;;;;;;5054562;28;19960;-66
2023/04/10 02:45:45;;;;;;;;;;;;;;;;;;5054500;28;20500;-67
2023/04/10 02:48:11;;;;;;;;;;;;;;;;;;5054491;28;20440;-66
2023/04/10 02:50:37;;;;;;;;;;;;;;;;;;5054666;28;19960;-67
2023/04/10 02:53:03;;;;;;;;;;;;;;;;;;5054371;28;19952;-65
2023/04/10 02:55:29;;;;;;;;;;;;;;;;;;5054409;28;19952;-67
2023/04/10 02:57:55;;;;;;;;;;;;;;;;;;5054801;28;19974;-67
2023/04/10 03:00:21;;;;;;;;;;;;;;;;;;5054264;28;20000;-68
2023/04/10 03:02:47;;;;;;;;;;;;;;;;;;5054157;28;20005;-67
2023/04/10 03:05:13;;;;;;;;;;;;;;;;;;5054174;28;19953;-67
2023/04/10 03:07:39;;;;;;;;;;;;;;;;;;5054718;28;20387;-67
2023/04/10 03:10:05;;;;;;;;;;;;;;;;;;5054384;28;20421;-68
2023/04/10 03:12:31;;;;;;;;;;;;;;;;;;5054073;28;19958;-66
2023/04/10 03:14:57;;;;;;;;;;;;;;;;;;5054331;28;19960;-68
2023/04/10 03:17:23;;;;;;;;;;;;;;;;;;5053892;28;20320;-67
2023/04/10 03:19:49;;;;;;;;;;;;;;;;;;5054522;28;20415;-68
2023/04/10 03:22:15;;;;;;;;;;;;;;;;;;5053820;28;20000;-67
2023/04/10 03:24:41;;;;;;;;;;;;;;;;;;5054118;28;19951;-65
2023/04/10 03:27:07;;;;;;;;;;;;;;;;;;5053407;28;20466;-67
2023/04/10 03:29:32;;;;;;;;;;;;;;;;;;5053724;28;20024;-65
2023/04/10 03:31:58;;;;;;;;;;;;;;;;;;5054317;28;19957;-66
2023/04/10 03:34:24;;;;;;;;;;;;;;;;;;5054010;28;19958;-67
2023/04/10 03:36:50;;;;;;;;;;;;;;;;;;5054235;28;19975;-66
2023/04/10 03:39:16;;;;;;;;;;;;;;;;;;5053659;28;19955;-68
2023/04/10 03:41:42;;;;;;;;;;;;;;;;;;5054229;28;20478;-68
2023/04/10 03:44:08;;;;;;;;;;;;;;;;;;5053631;28;20005;-68
2023/04/10 03:46:34;;;;;;;;;;;;;;;;;;5053922;28;19959;-66
2023/04/10 03:49:00;;;;;;;;;;;;;;;;;;5053877;28;19954;-65
2023/04/10 03:51:26;;;;;;;;;;;;;;;;;;5053624;28;19954;-65
2023/04/10 03:53:52;;;;;;;;;;;;;;;;;;5053809;28;19953;-65
2023/04/10 03:56:18;;;;;;;;;;;;;;;;;;5053737;28;20313;-65
2023/04/10 03:58:43;;;;;;;;;;;;;;;;;;5054073;28;19964;-66
2023/04/10 04:01:09;;;;;;;;;;;;;;;;;;5053475;28;20381;-66
2023/04/10 04:03:35;;;;;;;;;;;;;;;;;;5053740;28;19953;-65
2023/04/10 04:06:01;;;;;;;;;;;;;;;;;;5053368;28;19961;-66
2023/04/10 04:08:27;;;;;;;;;;;;;;;;;;5053382;28;19953;-65
2023/04/10 04:10:53;;;;;;;;;;;;;;;;;;5053642;28;19959;-66
2023/04/10 04:13:19;;;;;;;;;;;;;;;;;;5053905;28;20290;-65
2023/04/10 04:15:46;;;;;;;;;;;;;;;;;;5053518;28;19965;-66
2023/04/10 04:18:12;;;;;;;;;;;;;;;;;;5053900;28;19976;-66
2023/04/10 04:20:38;;;;;;;;;;;;;;;;;;5053884;28;20423;-68
2023/04/10 04:23:04;;;;;;;;;;;;;;;;;;5053631;28;19954;-66
2023/04/10 04:25:30;;;;;;;;;;;;;;;;;;5053232;28;19961;-67
2023/04/10 04:27:56;;;;;;;;;;;;;;;;;;5053267;28;20338;-67
2023/04/10 04:30:22;;;;;;;;;;;;;;;;;;5053239;28;19969;-66
2023/04/10 04:32:48;;;;;;;;;;;;;;;;;;5053426;28;19961;-68
2023/04/10 04:35:15;;;;;;;;;;;;;;;;;;5053438;28;20010;-68
2023/04/10 04:37:41;;;;;;;;;;;;;;;;;;5052039;28;20005;-67
2023/04/10 04:40:07;;;;;;;;;;;;;;;;;;5056819;28;20442;-66
2023/04/10 04:42:32;;;;;;;;;;;;;;;;;;5057122;28;19958;-65
2023/04/10 04:44:58;;;;;;;;;;;;;;;;;;5057099;28;19959;-68
2023/04/10 04:47:24;;;;;;;;;;;;;;;;;;5057020;28;19961;-67
2023/04/10 04:49:50;;;;;;;;;;;;;;;;;;5056780;28;19952;-66
2023/04/10 04:52:16;;;;;;;;;;;;;;;;;;5057027;28;20050;-67
2023/04/10 04:54:42;;;;;;;;;;;;;;;;;;5056641;28;19987;-66
2023/04/10 04:57:08;;;;;;;;;;;;;;;;;;5056555;28;19979;-67
2023/04/10 04:59:34;;;;;;;;;;;;;;;;;;5057615;28;20368;-67
2023/04/10 05:02:00;;;;;;;;;;;;;;;;;;5056481;28;19950;-66
2023/04/10 05:04:26;;;;;;;;;;;;;;;;;;5056489;28;19960;-67
2023/04/10 05:06:52;;;;;;;;;;;;;;;;;;5056707;28;19958;-66
2023/04/10 05:09:18;;;;;;;;;;;;;;;;;;5056365;28;20466;-68
2023/04/10 05:11:44;;;;;;;;;;;;;;;;;;5056357;28;19960;-66
2023/04/10 05:14:10;;;;;;;;;;;;;;;;;;5056531;28;20001;-65
2023/04/10 05:16:36;;;;;;;;;;;;;;;;;;5056414;28;20365;-68
2023/04/10 05:19:01;;;;;;;;;;;;;;;;;;5056760;28;19959;-66
2023/04/10 05:21:27;;;;;;;;;;;;;;;;;;5055927;28;19987;-68
2023/04/10 05:23:53;;;;;;;;;;;;;;;;;;5056110;28;20048;-66
2023/04/10 05:26:19;;;;;;;;;;;;;;;;;;5056340;28;20002;-67
2023/04/10 05:28:45;;;;;;;;;;;;;;;;;;5056193;28;19951;-67
2023/04/10 05:31:11;;;;;;;;;;;;;;;;;;5056238;28;19960;-66
2023/04/10 05:33:37;;;;;;;;;;;;;;;;;;5055917;28;20414;-67
2023/04/10 05:36:03;;;;;;;;;;;;;;;;;;5055836;28;20042;-66
2023/04/10 05:38:29;;;;;;;;;;;;;;;;;;5056388;28;20408;-66
2023/04/10 05:40:55;;;;;;;;;;;;;;;;;;5055749;28;19957;-67
2023/04/10 05:43:21;;;;;;;;;;;;;;;;;;5055989;28;19952;-66
2023/04/10 05:45:47;;;;;;;;;;;;;;;;;;5055940;28;20309;-65
2023/04/10 05:48:13;;;;;;;;;;;;;;;;;;5056296;28;20000;-68
2023/04/10 05:50:38;;;;;;;;;;;;;;;;;;5055388;28;19954;-68
2023/04/10 05:53:04;;;;;;;;;;;;;;;;;;5055552;28;20479;-68
2023/04/10 05:55:31;;;;;;;;;;;;;;;;;;5055473;28;19952;-66
2023/04/10 05:57:57;;;;;;;;;;;;;;;;;;5055745;28;20008;-68
2023/04/10 06:00:24;;;;;;;;;;;;;;;;;;5055406;28;19967;-67
2023/04/10 06:02:50;;;;;;;;;;;;;;;;;;5055609;28;20417;-66
2023/04/10 06:05:16;;;;;;;;;;;;;;;;;;5055918;28;19951;-65
2023/04/10 06:07:42;;;;;;;;;;;;;;;;;;5055528;28;20002;-65
2023/04/10 06:10:08;;;;;;;;;;;;;;;;;;5055244;28;19952;-65
2023/04/10 06:12:33;;;;;;;;;;;;;;;;;;5055460;28;19952;-67
2023/04/10 06:14:59;;;;;;;;;;;;;;;;;;5055206;28;20049;-67
2023/04/10 06:17:27;;;;;;;;;;;;;;;;;;5055060;28;19974;-65
2023/04/10 06:19:53;;;;;;;;;;;;;;;;;;5055044;28;19959;-68
2023/04/10 06:22:18;;;;;;;;;;;;;;;;;;5055464;28;19986;-66
2023/04/10 06:24:44;;;;;;;;;;;;;;;;;;5055237;28;20001;-68
2023/04/10 06:27:11;;;;;;;;;;;;;;;;;;5055171;28;19956;-67
2023/04/10 06:29:37;;;;;;;;;;;;;;;;;;5054784;28;19968;-67
2023/04/10 06:32:03;;;;;;;;;;;;;;;;;;5055086;28;19952;-66
2023/04/10 06:34:29;;;;;;;;;;;;;;;;;;5054753;28;19975;-66
2023/04/10 06:36:55;;;;;;;;;;;;;;;;;;5054903;28;20313;-67
2023/04/10 06:39:20;;;;;;;;;;;;;;;;;;5055002;28;19949;-64
2023/04/10 06:41:46;;;;;;;;;;;;;;;;;;5055164;28;19954;-67
2023/04/10 06:44:12;;;;;;;;;;;;;;;;;;5054591;28;19952;-66
2023/04/10 06:46:38;;;;;;;;;;;;;;;;;;5054552;28;19997;-67
2023/04/10 06:49:05;;;;;;;;;;;;;;;;;;5054693;28;20047;-66
2023/04/10 06:51:30;;;;;;;;;;;;;;;;;;5054925;28;20486;-66
2023/04/10 06:53:56;;;;;;;;;;;;;;;;;;5054328;28;20047;-65
2023/04/10 06:56:22;;;;;;;;;;;;;;;;;;5054293;28;19971;-65
2023/04/10 06:58:48;;;;;;;;;;;;;;;;;;5054354;28;19952;-65
2023/04/10 07:01:14;;;;;;;;;;;;;;;;;;5053862;28;19961;-68
2023/04/10 07:03:40;;;;;;;;;;;;;;;;;;5054536;28;19980;-65
2023/04/10 07:06:07;;;;;;;;;;;;;;;;;;5054728;28;20038;-66
2023/04/10 07:08:33;;;;;;;;;;;;;;;;;;5054107;28;19957;-68
2023/04/10 07:10:59;;;;;;;;;;;;;;;;;;5054124;28;19953;-67
2023/04/10 07:13:25;;;;;;;;;;;;;;;;;;5054637;28;20414;-68
2023/04/10 07:15:51;;;;;;;;;;;;;;;;;;5053929;28;19959;-67
2023/04/10 07:18:16;;;;;;;;;;;;;;;;;;5054031;28;19959;-65
2023/04/10 07:20:42;;;;;;;;;;;;;;;;;;5054002;28;19952;-66
2023/04/10 07:23:08;;;;;;;;;;;;;;;;;;5054247;28;19950;-66
2023/04/10 07:25:35;;;;;;;;;;;;;;;;;;5053884;28;20018;-64
2023/04/10 07:28:01;;;;;;;;;;;;;;;;;;5053788;28;20048;-67
2023/04/10 07:30:26;;;;;;;;;;;;;;;;;;5054018;28;20024;-67
2023/04/10 07:32:52;;;;;;;;;;;;;;;;;;5053746;28;19975;-67
2023/04/10 07:35:19;;;;;;;;;;;;;;;;;;5053725;28;20313;-68
2023/04/10 07:37:49;;;;;;;;;;;;;;;;;;5053856;28;20315;-67
2023/04/10 07:40:15;;;;;;;;;;;;;;;;;;5052406;28;19995;-66
2023/04/10 07:42:41;;;;;;;;;;;;;;;;;;5053919;28;20046;-68
2023/04/10 07:45:06;;;;;;;;;;;;;;;;;;5053654;28;20395;-66
2023/04/10 07:47:32;;;;;;;;;;;;;;;;;;5053610;28;19952;-68
2023/04/10 07:49:58;;;;;;;;;;;;;;;;;;5053879;28;20044;-65
2023/04/10 07:52:24;;;;;;;;;;;;;;;;;;5054340;28;20431;-67
2023/04/10 07:54:51;;;;;;;;;;;;;;;;;;5053815;28;19952;-67
2023/04/10 07:57:17;;;;;;;;;;;;;;;;;;5054051;28;19971;-68
2023/04/10 07:59:43;;;;;;;;;;;;;;;;;;5053478;28;19961;-66
2023/04/10 08:02:09;;;;;;;;;;;;;;;;;;5054024;28;20310;-67
2023/04/10 08:04:35;;;;;;;;;;;;;;;;;;5053748;28;19959;-67
2023/04/10 08:07:01;;;;;;;;;;;;;;;;;;5053457;28;19953;-67
2023/04/10 08:09:27;;;;;;;;;;;;;;;;;;5054023;28;20427;-68
2023/04/10 08:11:53;;;;;;;;;;;;;;;;;;5054515;28;19953;-68
2023/04/10 08:14:19;;;;;;;;;;;;;;;;;;5057431;28;19953;-66
2023/04/10 08:16:45;;;;;;;;;;;;;;;;;;5057307;28;19975;-68
2023/04/10 08:19:10;;;;;;;;;;;;;;;;;;5057582;28;20005;-65
2023/04/10 08:21:36;;;;;;;;;;;;;;;;;;5057085;28;19995;-66
2023/04/10 08:24:02;;;;;;;;;;;;;;;;;;5057254;28;20396;-66
2023/04/10 08:26:28;;;;;;;;;;;;;;;;;;5057212;28;19959;-68
2023/04/10 08:28:54;;;;;;;;;;;;;;;;;;5057333;28;20064;-68
2023/04/10 08:31:20;;;;;;;;;;;;;;;;;;5057102;28;19959;-67
2023/04/10 08:33:46;;;;;;;;;;;;;;;;;;5057345;28;20400;-65
2023/04/10 08:36:12;;;;;;;;;;;;;;;;;;5057218;28;19951;-66
2023/04/10 08:38:38;;;;;;;;;;;;;;;;;;5057508;28;20364;-66
2023/04/10 08:41:04;;;;;;;;;;;;;;;;;;5057244;28;19954;-65
2023/04/10 08:43:30;;;;;;;;;;;;;;;;;;5056912;28;19963;-66
2023/04/10 08:45:55;;;;;;;;;;;;;;;;;;5056819;28;20018;-66
2023/04/10 08:48:21;;;;;;;;;;;;;;;;;;5057075;28;19951;-67
2023/04/10 08:50:47;;;;;;;;;;;;;;;;;;5057005;28;19980;-66
2023/04/10 08:53:13;;;;;;;;;;;;;;;;;;5056699;28;19962;-64
2023/04/10 08:55:39;;;;;;;;;;;;;;;;;;5056916;28;19999;-67
2023/04/10 08:58:05;;;;;;;;;;;;;;;;;;5056805;28;19976;-66
2023/04/10 09:00:33;;;;;;;;;;;;;;;;;;5056568;28;20303;-68
2023/04/10 09:02:59;;;;;;;;;;;;;;;;;;5055261;28;20028;-67
2023/04/10 09:05:25;;;;;;;;;;;;;;;;;;5057004;28;20396;-65
2023/04/10 09:07:51;;;;;;;;;;;;;;;;;;5056377;28;20004;-66
2023/04/10 09:10:16;;;;;;;;;;;;;;;;;;5056385;28;20331;-68
2023/04/10 09:12:42;;;;;;;;;;;;;;;;;;5056337;28;19952;-67
2023/04/10 09:15:08;;;;;;;;;;;;;;;;;;5056870;28;20375;-66
2023/04/10 09:17:34;;;;;;;;;;;;;;;;;;5056141;28;20061;-68
2023/04/10 09:20:00;;;;;;;;;;;;;;;;;;5056743;28;19980;-68
2023/04/10 09:22:26;;;;;;;;;;;;;;;;;;5055737;28;19997;-68
2023/04/10 09:24:52;;;;;;;;;;;;;;;;;;5055354;28;19954;-65
2023/04/10 09:27:18;;;;;;;;;;;;;;;;;;5056043;28;19969;-67
2023/04/10 09:29:44;;;;;;;;;;;;;;;;;;5055968;28;19974;-66
2023/04/10 09:32:10;;;;;;;;;;;;;;;;;;5055989;28;19955;-67
2023/04/10 09:34:36;;;;;;;;;;;;;;;;;;5056186;28;19955;-66
2023/04/10 09:37:02;;;;;;;;;;;;;;;;;;5055808;28;19978;-68
2023/04/10 09:39:28;;;;;;;;;;;;;;;;;;5055864;28;19953;-66
2023/04/10 09:41:54;;;;;;;;;;;;;;;;;;5056060;28;19987;-65
2023/04/10 09:44:20;;;;;;;;;;;;;;;;;;5056279;28;19958;-66
2023/04/10 09:46:48;;;;;;;;;;;;;;;;;;5055973;28;20302;-65
2023/04/10 09:49:14;;;;;;;;;;;;;;;;;;5055872;28;20307;-67
2023/04/10 09:51:41;;;;;;;;;;;;;;;;;;5056142;28;19960;-67
2023/04/10 09:54:07;;;;;;;;;;;;;;;;;;5055832;28;19962;-65
2023/04/10 09:56:33;;;;;;;;;;;;;;;;;;5055772;28;19973;-67
2023/04/10 09:58:59;;;;;;;;;;;;;;;;;;5055962;28;19952;-67
2023/04/10 10:01:25;;;;;;;;;;;;;;;;;;5055462;28;20000;-65
2023/04/10 10:03:50;;;;;;;;;;;;;;;;;;5055646;28;19953;-67
2023/04/10 10:06:16;;;;;;;;;;;;;;;;;;5055334;28;20367;-66
2023/04/10 10:08:42;;;;;;;;;;;;;;;;;;5055550;28;19980;-68
2023/04/10 10:11:10;;;;;;;;;;;;;;;;;;5055223;28;19961;-67
2023/04/10 10:13:36;;;;;;;;;;;;;;;;;;5055723;28;19977;-66
2023/04/10 10:16:03;;;;;;;;;;;;;;;;;;5055044;28;20416;-65
2023/04/10 10:18:29;;;;;;;;;;;;;;;;;;5055065;28;20003;-66
2023/04/10 10:20:55;;;;;;;;;;;;;;;;;;5055048;28;19992;-67
2023/04/10 10:23:21;;;;;;;;;;;;;;;;;;5055339;28;20041;-67
2023/04/10 10:25:47;;;;;;;;;;;;;;;;;;5054929;28;20457;-66
2023/04/10 10:28:13;;;;;;;;;;;;;;;;;;5054904;28;20045;-68
2023/04/10 10:30:39;;;;;;;;;;;;;;;;;;5055048;28;20006;-68
2023/04/10 10:33:07;;;;;;;;;;;;;;;;;;5054357;28;20290;-65
2023/04/10 10:35:32;;;;;;;;;;;;;;;;;;5053737;28;20003;-67
2023/04/10 10:37:59;;;;;;;;;;;;;;;;;;5055207;28;19972;-65
2023/04/10 10:40:24;;;;;;;;;;;;;;;;;;5054656;28;19959;-67
2023/04/10 10:42:50;;;;;;;;;;;;;;;;;;5054874;28;19963;-67
2023/04/10 10:45:16;;;;;;;;;;;;;;;;;;5055114;28;19955;-67
2023/04/10 10:47:42;;;;;;;;;;;;;;;;;;5054509;28;20036;-65
2023/04/10 10:50:08;;;;;;;;;;;;;;;;;;5054459;28;19953;-66
2023/04/10 10:52:34;;;;;;;;;;;;;;;;;;5054976;28;20398;-68
2023/04/10 10:55:00;;;;;;;;;;;;;;;;;;5054411;28;19985;-66
2023/04/10 10:57:26;;;;;;;;;;;;;;;;;;5054511;28;19978;-66
2023/04/10 10:59:51;;;;;;;;;;;;;;;;;;5054880;28;19960;-65
2023/04/10 11:02:17;;;;;;;;;;;;;;;;;;5054288;28;19954;-66
2023/04/10 11:04:44;;;;;;;;;;;;;;;;;;5054698;28;19959;-64
2023/04/10 11:07:10;;;;;;;;;;;;;;;;;;5054462;28;19962;-66
2023/04/10 11:09:36;;;;;;;;;;;;;;;;;;5054110;28;19956;-65
2023/04/10 11:12:02;;;;;;;;;;;;;;;;;;5054333;28;19957;-68
2023/04/10 11:14:28;;;;;;;;;;;;;;;;;;5054589;28;19953;-67
2023/04/10 11:16:54;;;;;;;;;;;;;;;;;;5054215;28;19982;-65
2023/04/10 11:19:23;;;;;;;;;;;;;;;;;;5054194;28;20318;-68
2023/04/10 11:21:49;;;;;;;;;;;;;;;;;;5053998;28;19991;-65
2023/04/10 11:24:15;;;;;;;;;;;;;;;;;;5054163;28;19973;-68
2023/04/10 11:26:41;;;;;;;;;;;;;;;;;;5053895;28;19953;-66
2023/04/10 11:29:07;;;;;;;;;;;;;;;;;;5054049;28;19970;-66
2023/04/10 11:31:33;;;;;;;;;;;;;;;;;;5054119;28;19958;-67
2023/04/10 11:33:59;;;;;;;;;;;;;;;;;;5054326;28;20047;-67
2023/04/10 11:36:25;;;;;;;;;;;;;;;;;;5053622;28;19978;-66
2023/04/10 11:38:51;;;;;;;;;;;;;;;;;;5054014;28;20483;-66
2023/04/10 11:41:17;;;;;;;;;;;;;;;;;;5053670;28;19954;-67
2023/04/10 11:43:43;;;;;;;;;;;;;;;;;;5053901;28;19959;-67
2023/04/10 11:46:09;;;;;;;;;;;;;;;;;;5053537;28;20005;-67
2023/04/10 11:48:35;;;;;;;;;;;;;;;;;;5053697;28;19957;-65
2023/04/10 11:51:01;;;;;;;;;;;;;;;;;;5053577;28;20458;-67
2023/04/10 11:53:28;;;;;;;;;;;;;;;;;;5054173;28;19954;-69
2023/04/10 11:55:55;;;;;;;;;;;;;;;;;;5053818;28;19953;-66
2023/04/10 11:58:21;;;;;;;;;;;;;;;;;;5054063;28;19980;-66
2023/04/10 12:00:47;;;;;;;;;;;;;;;;;;5053499;28;19989;-67
2023/04/10 12:03:13;;;;;;;;;;;;;;;;;;5053845;28;19953;-67
2023/04/10 12:05:39;;;;;;;;;;;;;;;;;;5053474;28;20481;-67
2023/04/10 12:08:05;;;;;;;;;;;;;;;;;;5053438;28;19967;-67
2023/04/10 12:10:31;;;;;;;;;;;;;;;;;;5053924;28;19961;-66
2023/04/10 12:12:57;;;;;;;;;;;;;;;;;;5053411;28;19954;-68
2023/04/10 12:15:23;;;;;;;;;;;;;;;;;;5053396;28;19955;-66
2023/04/10 12:17:49;;;;;;;;;;;;;;;;;;5053521;28;19981;-68
2023/04/10 12:20:15;;;;;;;;;;;;;;;;;;5053593;28;20354;-68
2023/04/10 12:22:43;;;;;;;;;;;;;;;;;;5052907;28;20029;-66
2023/04/10 12:25:08;;;;;;;;;;;;;;;;;;5051995;28;19964;-67
2023/04/10 12:27:34;;;;;;;;;;;;;;;;;;5053276;28;19952;-68
2023/04/10 12:30:00;;;;;;;;;;;;;;;;;;5053471;28;19983;-65
2023/04/10 12:32:26;;;;;;;;;;;;;;;;;;5053195;28;20425;-67
2023/04/10 12:34:52;;;;;;;;;;;;;;;;;;5053192;28;19960;-66
2023/04/10 12:37:18;;;;;;;;;;;;;;;;;;5053328;28;19974;-65
2023/04/10 12:39:44;;;;;;;;;;;;;;;;;;5053132;28;19981;-67
2023/04/10 12:42:10;;;;;;;;;;;;;;;;;;5053076;28;20045;-65
2023/04/10 12:44:36;;;;;;;;;;;;;;;;;;5051795;28;20338;-66
2023/04/10 12:47:02;;;;;;;;;;;;;;;;;;5053076;28;19953;-68
2023/04/10 12:49:28;;;;;;;;;;;;;;;;;;5053351;28;19955;-67
2023/04/10 12:51:54;;;;;;;;;;;;;;;;;;5053320;28;19996;-68
2023/04/10 12:54:20;;;;;;;;;;;;;;;;;;5053029;28;20069;-66
2023/04/10 12:56:46;;;;;;;;;;;;;;;;;;5052924;28;20494;-68
2023/04/10 12:59:12;;;;;;;;;;;;;;;;;;5054188;28;19955;-67
2023/04/10 13:01:38;;;;;;;;;;;;;;;;;;5056824;28;19954;-65
2023/04/10 13:04:04;;;;;;;;;;;;;;;;;;5056504;28;20004;-65
2023/04/10 13:06:30;;;;;;;;;;;;;;;;;;5056462;28;20437;-66
2023/04/10 13:08:56;;;;;;;;;;;;;;;;;;5056963;28;19953;-66
2023/04/10 13:11:22;;;;;;;;;;;;;;;;;;5056361;28;20416;-67
2023/04/10 13:13:48;;;;;;;;;;;;;;;;;;5056612;28;20008;-66
2023/04/10 13:16:14;;;;;;;;;;;;;;;;;;5056239;28;20446;-68
2023/04/10 13:18:40;;;;;;;;;;;;;;;;;;5056295;28;19955;-68
2023/04/10 13:21:06;;;;;;;;;;;;;;;;;;5056225;28;19986;-66
2023/04/10 13:23:32;;;;;;;;;;;;;;;;;;5056790;28;20320;-66
2023/04/10 13:25:58;;;;;;;;;;;;;;;;;;5056122;28;19954;-66
2023/04/10 13:28:24;;;;;;;;;;;;;;;;;;5056396;28;20394;-68
2023/04/10 13:30:51;;;;;;;;;;;;;;;;;;5056219;28;19970;-68
2023/04/10 13:33:17;;;;;;;;;;;;;;;;;;5056567;28;19953;-68
2023/04/10 13:35:42;;;;;;;;;;;;;;;;;;5055921;28;19980;-68
2023/04/10 13:38:10;;;;;;;;;;;;;;;;;;5055810;28;20040;-67
2023/04/10 13:40:36;;;;;;;;;;;;;;;;;;5054616;28;19992;-65
2023/04/10 13:43:02;;;;;;;;;;;;;;;;;;5056105;28;19957;-65
2023/04/10 13:45:28;;;;;;;;;;;;;;;;;;5056303;28;20442;-68
2023/04/10 13:47:54;;;;;;;;;;;;;;;;;;5055719;28;19988;-68
2023/04/10 13:50:20;;;;;;;;;;;;;;;;;;5055964;28;20521;-66
2023/04/10 13:52:45;;;;;;;;;;;;;;;;;;5056177;28;19998;-66
2023/04/10 13:55:11;;;;;;;;;;;;;;;;;;5055596;28;19962;-66
2023/04/10 13:57:37;;;;;;;;;;;;;;;;;;5055749;28;20429;-68
2023/04/10 14:00:03;;;;;;;;;;;;;;;;;;5055507;28;19954;-67
2023/04/10 14:02:29;;;;;;;;;;;;;;;;;;5055434;28;19963;-66
2023/04/10 14:04:55;;;;;;;;;;;;;;;;;;5055625;28;19961;-66
2023/04/10 14:07:21;;;;;;;;;;;;;;;;;;5055353;28;19954;-67
2023/04/10 14:09:47;;;;;;;;;;;;;;;;;;5055078;28;20418;-67
2023/04/10 14:12:16;;;;;;;;;;;;;;;;;;5055575;28;19998;-65
2023/04/10 14:14:42;;;;;;;;;;;;;;;;;;5055454;28;19955;-68
2023/04/10 14:17:08;;;;;;;;;;;;;;;;;;5055379;28;19979;-65
2023/04/10 14:19:34;;;;;;;;;;;;;;;;;;5055370;28;19956;-68
2023/04/10 14:22:00;;;;;;;;;;;;;;;;;;5054889;28;20472;-68
2023/04/10 14:24:26;;;;;;;;;;;;;;;;;;5055009;28;19970;-65
2023/04/10 14:26:56;;;;;;;;;;;;;;;;;;5054952;28;20016;-68
2023/04/10 14:29:22;;;;;;;;;;;;;;;;;;5055261;28;19974;-66
2023/04/10 14:31:50;;;;;;;;;;;;;;;;;;5054880;28;19955;-65
2023/04/10 14:34:16;;;;;;;;;;;;;;;;;;5055071;28;19955;-69
2023/04/10 14:36:42;;;;;;;;;;;;;;;;;;5054699;28;20028;-67
2023/04/10 14:39:08;;;;;;;;;;;;;;;;;;5054666;28;19962;-69
2023/04/10 14:41:34;;;;;;;;;;;;;;;;;;5055265;28;20045;-68
2023/04/10 14:44:00;;;;;;;;;;;;;;;;;;5054901;28;19954;-65
2023/04/10 14:46:25;;;;;;;;;;;;;;;;;;5054875;28;19959;-67
2023/04/10 14:48:51;;;;;;;;;;;;;;;;;;5054453;28;20450;-68
2023/04/10 14:51:18;;;;;;;;;;;;;;;;;;5054751;28;19966;-68
2023/04/10 14:53:44;;;;;;;;;;;;;;;;;;5054478;28;19959;-65
2023/04/10 14:56:10;;;;;;;;;;;;;;;;;;5054934;28;19963;-66
2023/04/10 14:58:36;;;;;;;;;;;;;;;;;;5054585;28;19956;-68
2023/04/10 15:01:02;;;;;;;;;;;;;;;;;;5054332;28;20006;-67
2023/04/10 15:03:28;;;;;;;;;;;;;;;;;;5054554;28;20041;-67
2023/04/10 15:05:54;;;;;;;;;;;;;;;;;;5054222;28;19962;-66
2023/04/10 15:08:20;;;;;;;;;;;;;;;;;;5054443;28;19954;-66
2023/04/10 15:10:49;;;;;;;;;;;;;;;;;;5054137;28;19960;-68
2023/04/10 15:13:15;;;;;;;;;;;;;;;;;;5054061;28;20111;-67
2023/04/10 15:15:40;;;;;;;;;;;;;;;;;;5054301;28;20006;-67
2023/04/10 15:18:06;;;;;;;;;;;;;;;;;;5053955;28;19979;-67
2023/04/10 15:20:32;;;;;;;;;;;;;;;;;;5053814;28;19956;-66
2023/04/10 15:23:00;;;;;;;;;;;;;;;;;;5053371;28;19959;-67
2023/04/10 15:25:26;;;;;;;;;;;;;;;;;;5054171;28;19985;-68
2023/04/10 15:27:52;;;;;;;;;;;;;;;;;;5053866;28;19962;-67
2023/04/10 15:30:18;;;;;;;;;;;;;;;;;;5053762;28;20392;-67
2023/04/10 15:32:43;;;;;;;;;;;;;;;;;;5054111;28;19965;-66
2023/04/10 15:35:09;;;;;;;;;;;;;;;;;;5053797;28;19955;-66
2023/04/10 15:37:35;;;;;;;;;;;;;;;;;;5053966;28;20088;-66
2023/04/10 15:40:02;;;;;;;;;;;;;;;;;;5053738;28;19954;-67
2023/04/10 15:42:28;;;;;;;;;;;;;;;;;;5053980;28;20425;-66
2023/04/10 15:44:54;;;;;;;;;;;;;;;;;;5053702;28;19959;-66
2023/04/10 15:47:20;;;;;;;;;;;;;;;;;;5053916;28;19956;-64
2023/04/10 15:49:46;;;;;;;;;;;;;;;;;;5053623;28;19989;-67
2023/04/10 15:52:12;;;;;;;;;;;;;;;;;;5053620;28;19989;-65
2023/04/10 15:54:38;;;;;;;;;;;;;;;;;;5053583;28;19962;-65
2023/04/10 15:57:04;;;;;;;;;;;;;;;;;;5053732;28;20342;-65
2023/04/10 15:59:29;;;;;;;;;;;;;;;;;;5053511;28;20374;-67
2023/04/10 16:01:55;;;;;;;;;;;;;;;;;;5053759;28;20049;-68
2023/04/10 16:04:21;;;;;;;;;;;;;;;;;;5053487;28;20017;-68
2023/04/10 16:06:47;;;;;;;;;;;;;;;;;;5053715;28;19961;-68
2023/04/10 16:09:13;;;;;;;;;;;;;;;;;;5053417;28;19962;-66
2023/04/10 16:11:40;;;;;;;;;;;;;;;;;;5053950;28;20425;-66
2023/04/10 16:14:06;;;;;;;;;;;;;;;;;;5053355;28;19958;-66
2023/04/10 16:16:32;;;;;;;;;;;;;;;;;;5053293;28;19984;-66
2023/04/10 16:18:59;;;;;;;;;;;;;;;;;;5053358;28;20010;-68
2023/04/10 16:21:25;;;;;;;;;;;;;;;;;;5053150;28;19989;-67
2023/04/10 16:23:51;;;;;;;;;;;;;;;;;;5053298;28;19955;-66
2023/04/10 16:26:17;;;;;;;;;;;;;;;;;;5053857;28;20321;-67
2023/04/10 16:28:43;;;;;;;;;;;;;;;;;;5053484;28;19990;-68
2023/04/10 16:31:09;;;;;;;;;;;;;;;;;;5053245;28;20370;-66
2023/04/10 16:33:35;;;;;;;;;;;;;;;;;;5055677;28;19959;-67
2023/04/10 16:36:04;;;;;;;;;;;;;;;;;;5057637;28;19955;-68